Time;durP1;ratioP1;P1;durP2;ratioP2;P2;SDS_P1;SDS_P2;PMS_P1;PMS_P2;Temp;Humidity;BMP_temperature;BMP_pressure;BME280_temperature;BME280_humidity;BME280_pressure;Samples;Min_cycle;Max_cycle;Signal;HPM_P1;HPM_P2
2022/06/02 00:00:16;;;;;;;25.08;20.27;;;;;;;6.61;100.00;101772.41;2087707;28;45835;-67
2022/06/02 00:01:40;;;;;;;24.77;19.88;;;;;;;6.66;100.00;101775.97;2071594;28;20098;-67
2022/06/02 00:03:13;;;;;;;22.02;19.15;;;;;;;6.58;100.00;101778.56;2070965;28;43276;-67
2022/06/02 00:04:36;;;;;;;21.80;17.13;;;;;;;6.56;100.00;101782.09;2070160;28;46822;-67
2022/06/02 00:06:35;;;;;;;26.52;20.67;;;;;;;6.59;100.00;101782.13;2070813;28;41926;-67
2022/06/02 00:08:18;;;;;;;23.65;19.63;;;;;;;6.53;100.00;101777.63;2054237;28;44153;-66
2022/06/02 00:09:53;;;;;;;19.98;17.08;;;;;;;6.49;100.00;101782.03;2074766;28;45950;-67
2022/06/02 00:11:41;;;;;;;19.70;17.08;;;;;;;6.45;100.00;101782.91;2087988;28;45293;-67
2022/06/02 00:12:52;;;;;;;20.98;17.17;;;;;;;6.36;99.89;101784.63;2088719;28;45958;-67
2022/06/02 00:14:15;;;;;;;23.00;18.67;;;;;;;6.34;100.00;101781.06;2082204;28;42676;-67
2022/06/02 00:15:45;;;;;;;19.58;16.88;;;;;;;6.30;99.93;101783.69;2075330;28;44443;-67
2022/06/02 00:16:58;;;;;;;22.48;18.13;;;;;;;6.29;100.00;101781.00;2076210;28;45335;-67
2022/06/02 00:18:32;;;;;;;27.05;21.27;;;;;;;6.28;100.00;101785.44;2079110;28;42927;-67
2022/06/02 00:19:50;;;;;;;22.92;18.45;;;;;;;6.27;100.00;101788.09;2078978;28;46128;-67
2022/06/02 00:21:47;;;;;;;28.10;19.67;;;;;;;6.28;100.00;101788.09;2073946;28;42399;-67
2022/06/02 00:23:16;;;;;;;30.35;22.20;;;;;;;6.25;100.00;101787.19;2071304;28;44044;-67
2022/06/02 00:24:33;;;;;;;26.13;20.90;;;;;;;6.19;100.00;101782.72;2078961;28;46242;-67
2022/06/02 00:25:53;;;;;;;24.85;18.42;;;;;;;6.16;100.00;101781.81;2075922;28;41004;-66
2022/06/02 00:27:11;;;;;;;25.13;18.88;;;;;;;6.18;100.00;101786.25;2070921;28;44272;-66
2022/06/02 00:28:37;;;;;;;27.13;21.38;;;;;;;6.17;100.00;101788.88;2075651;28;44791;-67
2022/06/02 00:30:11;;;;;;;32.28;22.20;;;;;;;6.15;100.00;101780.00;2080041;28;20034;-67
2022/06/02 00:31:47;;;;;;;25.90;20.38;;;;;;;6.09;100.00;101784.38;2070411;28;47007;-66
2022/06/02 00:32:51;;;;;;;18.38;15.80;;;;;;;6.03;100.00;101779.03;2071524;28;42598;-67
2022/06/02 00:34:27;;;;;;;20.10;17.50;;;;;;;6.00;100.00;101781.66;2071000;28;45407;-66
2022/06/02 00:35:51;;;;;;;22.88;18.70;;;;;;;5.96;100.00;101785.16;2071051;28;44940;-67
2022/06/02 00:37:38;;;;;;;25.50;19.42;;;;;;;5.90;100.00;101785.97;2069009;28;44175;-67
2022/06/02 00:38:42;;;;;;;24.42;18.95;;;;;;;5.89;100.00;101788.59;2068588;28;46659;-67
2022/06/02 00:39:47;;;;;;;22.90;18.40;;;;;;;5.85;100.00;101786.75;2070723;28;43395;-67
2022/06/02 00:40:50;;;;;;;25.95;19.83;;;;;;;5.85;100.00;101789.41;2070784;28;43233;-67
2022/06/02 00:42:16;;;;;;;19.30;16.65;;;;;;;5.82;100.00;101784.97;2063446;28;44402;-67
2022/06/02 00:43:28;;;;;;;20.25;17.27;;;;;;;5.78;100.00;101784.91;2068394;28;44018;-66
2022/06/02 00:44:47;;;;;;;19.85;16.83;;;;;;;5.72;100.00;101794.63;2070701;28;43890;-66
2022/06/02 00:45:57;;;;;;;18.30;15.70;;;;;;;5.67;100.00;101788.38;2077689;28;42299;-65
2022/06/02 00:47:21;;;;;;;25.27;19.27;;;;;;;5.64;100.00;101798.97;2079094;28;45172;-66
2022/06/02 00:48:43;;;;;;;22.33;17.92;;;;;;;5.59;100.00;101800.66;2075823;28;21925;-66
2022/06/02 00:50:05;;;;;;;28.90;21.52;;;;;;;5.63;100.00;101793.63;2076994;28;45137;-66
2022/06/02 00:51:13;;;;;;;23.38;19.60;;;;;;;5.62;100.00;101794.50;2077510;28;20854;-65
2022/06/02 00:52:29;;;;;;;22.58;18.00;;;;;;;5.63;100.00;101799.81;2074022;28;41098;-66
2022/06/02 00:57:43;;;;;;;27.25;19.90;;;;;;;5.52;100.00;101796.16;2079397;28;42077;-66
2022/06/02 00:59:12;;;;;;;23.83;17.88;;;;;;;5.49;100.00;101804.06;2078909;28;39981;-66
2022/06/02 01:00:36;;;;;;;25.88;18.38;;;;;;;5.44;100.00;101804.03;2079452;28;45786;-66
2022/06/02 01:01:37;;;;;;;30.27;22.40;;;;;;;5.44;100.00;101808.47;2079165;28;44209;-66
2022/06/02 01:03:05;;;;;;;27.27;20.42;;;;;;;5.48;100.00;101804.97;2078912;28;45075;-66
2022/06/02 01:04:18;;;;;;;30.55;21.92;;;;;;;5.44;100.00;101803.16;2078816;28;42460;-66
2022/06/02 01:05:25;;;;;;;27.75;21.25;;;;;;;5.47;100.00;101811.13;2074704;28;45439;-66
2022/06/02 01:06:53;;;;;;;33.08;23.10;;;;;;;5.50;100.00;101811.19;2079241;28;46115;-66
2022/06/02 01:08:32;;;;;;;31.52;22.50;;;;;;;5.50;100.00;101813.84;2079434;28;44078;-66
2022/06/02 01:10:07;;;;;;;29.75;20.92;;;;;;;5.47;100.00;101805.84;2078529;28;45327;-66
2022/06/02 01:11:37;;;;;;;33.85;23.77;;;;;;;5.48;100.00;101812.94;2079372;28;42605;-66
2022/06/02 01:12:52;;;;;;;35.70;23.67;;;;;;;5.44;100.00;101805.81;2078867;28;45475;-66
2022/06/02 01:14:03;;;;;;;28.85;21.13;;;;;;;5.37;100.00;101809.28;2080834;28;44576;-65
2022/06/02 01:15:21;;;;;;;28.42;20.98;;;;;;;5.35;100.00;101810.13;2078813;28;42946;-65
2022/06/02 01:16:45;;;;;;;27.15;20.58;;;;;;;5.32;100.00;101799.47;2065413;28;44848;-66
2022/06/02 01:18:22;;;;;;;27.92;20.17;;;;;;;5.28;100.00;101805.63;2071341;28;43580;-66
2022/06/02 01:19:32;;;;;;;24.25;17.92;;;;;;;5.26;100.00;101812.66;2070900;28;45362;-66
2022/06/02 01:21:24;;;;;;;25.10;19.00;;;;;;;5.20;100.00;101812.56;2070686;28;45461;-65
2022/06/02 01:23:00;;;;;;;25.35;18.67;;;;;;;5.14;100.00;101818.69;2054411;28;45366;-67
2022/06/02 01:24:34;;;;;;;29.00;21.80;;;;;;;5.12;100.00;101822.22;2070822;28;44048;-67
2022/06/02 01:26:17;;;;;;;29.88;23.23;;;;;;;5.10;100.00;101810.69;2078963;28;45656;-65
2022/06/02 01:28:01;;;;;;;23.40;17.90;;;;;;;5.12;100.00;101819.56;2070726;28;45105;-66
2022/06/02 01:29:23;;;;;;;30.05;20.90;;;;;;;5.05;100.00;101812.38;2070152;28;46157;-66
2022/06/02 01:30:48;;;;;;;29.05;20.63;;;;;;;5.03;100.00;101809.69;2079398;28;42039;-66
2022/06/02 01:32:07;;;;;;;27.50;19.83;;;;;;;5.07;100.00;101815.94;2078558;28;42997;-67
2022/06/02 01:33:35;;;;;;;35.55;23.73;;;;;;;5.06;100.00;101809.75;2079150;28;45777;-66
2022/06/02 01:35:04;;;;;;;30.05;21.75;;;;;;;5.04;100.00;101807.94;2078907;28;44333;-66
2022/06/02 01:36:17;;;;;;;31.65;22.10;;;;;;;5.01;100.00;101819.41;2079177;28;44806;-67
2022/06/02 01:37:47;;;;;;;27.23;20.90;;;;;;;5.03;100.00;101819.44;2079372;28;43580;-66
2022/06/02 01:39:31;;;;;;;26.27;19.27;;;;;;;4.97;100.00;101814.91;2080211;28;20053;-66
2022/06/02 01:41:10;;;;;;;28.02;20.42;;;;;;;4.92;100.00;101809.56;2079344;28;45668;-66
2022/06/02 01:42:55;;;;;;;27.48;19.75;;;;;;;4.98;100.00;101817.59;2079481;28;45131;-66
2022/06/02 01:44:27;;;;;;;39.35;24.10;;;;;;;4.93;100.00;101819.28;2080581;28;46155;-66
2022/06/02 01:46:14;;;;;;;36.60;24.35;;;;;;;4.92;100.00;101822.81;2078774;28;42338;-67
2022/06/02 01:47:31;;;;;;;32.10;22.17;;;;;;;4.95;100.00;101821.97;2079245;28;45842;-66
2022/06/02 01:48:42;;;;;;;34.35;23.33;;;;;;;4.94;100.00;101828.16;2078821;28;45592;-66
2022/06/02 01:50:06;;;;;;;31.40;22.13;;;;;;;4.93;100.00;101831.66;2078824;28;44087;-67
2022/06/02 01:51:34;;;;;;;37.35;23.17;;;;;;;4.91;100.00;101828.09;2078706;28;44800;-66
2022/06/02 01:53:13;;;;;;;35.45;22.17;;;;;;;4.88;100.00;101836.91;2078769;28;44197;-66
2022/06/02 01:55:06;;;;;;;35.45;22.42;;;;;;;4.87;100.00;101824.50;2078761;28;45072;-66
2022/06/02 01:56:54;;;;;;;34.55;22.35;;;;;;;4.88;100.00;101831.63;2079563;28;24594;-66
2022/06/02 01:58:20;;;;;;;30.75;20.65;;;;;;;4.85;100.00;101826.25;2063145;28;20242;-66
2022/06/02 01:59:40;;;;;;;34.75;22.70;;;;;;;4.83;100.00;101822.69;2082915;28;45788;-66
2022/06/02 02:00:53;;;;;;;32.47;21.85;;;;;;;4.80;100.00;101827.06;2088281;28;20033;-66
2022/06/02 02:02:20;;;;;;;34.63;23.10;;;;;;;4.76;100.00;101823.47;2069940;28;44553;-66
2022/06/02 02:03:57;;;;;;;39.13;24.30;;;;;;;4.76;100.00;101828.78;2074354;28;46051;-66
2022/06/02 02:05:48;;;;;;;30.77;21.48;;;;;;;4.73;100.00;101831.38;2086357;28;44309;-65
2022/06/02 02:07:35;;;;;;;30.42;20.80;;;;;;;4.69;100.00;101830.44;2087170;28;42798;-67
2022/06/02 02:09:05;;;;;;;36.30;22.75;;;;;;;4.62;100.00;101836.50;2087027;28;45743;-66
2022/06/02 02:10:38;;;;;;;29.07;18.67;;;;;;;4.61;100.00;101841.78;2087073;28;45189;-67
2022/06/02 02:11:44;;;;;;;39.20;24.83;;;;;;;4.61;100.00;101834.72;2087077;28;44762;-67
2022/06/02 02:13:10;;;;;;;39.60;25.33;;;;;;;4.61;100.00;101833.81;2087461;28;43694;-67
2022/06/02 02:14:49;;;;;;;37.63;24.35;;;;;;;4.62;100.00;101838.28;2082560;28;46786;-66
2022/06/02 02:16:37;;;;;;;39.08;24.85;;;;;;;4.59;100.00;101831.13;2079023;28;43666;-66
2022/06/02 02:18:10;;;;;;;32.88;22.80;;;;;;;4.60;100.00;101835.59;2078884;28;42754;-66
2022/06/02 02:19:57;;;;;;;30.95;21.50;;;;;;;4.57;100.00;101843.50;2079015;28;45160;-64
2022/06/02 02:21:33;;;;;;;45.70;26.85;;;;;;;4.49;100.00;101839.84;2078488;28;44798;-66
2022/06/02 02:22:45;;;;;;;39.05;24.55;;;;;;;4.51;100.00;101849.59;2078299;28;44208;-66
2022/06/02 02:24:32;;;;;;;35.17;22.88;;;;;;;4.49;100.00;101843.38;2079518;28;45967;-66
2022/06/02 02:25:49;;;;;;;37.55;23.80;;;;;;;4.55;100.00;101845.22;2078484;28;43973;-66
2022/06/02 02:27:13;;;;;;;42.03;24.90;;;;;;;4.50;100.00;101837.19;2076104;28;47209;-66
2022/06/02 02:28:41;;;;;;;45.88;26.88;;;;;;;4.49;100.00;101843.38;2079039;28;37754;-66
2022/06/02 02:30:05;;;;;;;45.35;28.15;;;;;;;4.47;100.00;101845.13;2085804;28;45308;-66
2022/06/02 02:31:09;;;;;;;42.17;25.60;;;;;;;4.46;100.00;101848.63;2078548;28;44126;-67
2022/06/02 02:33:07;;;;;;;42.58;26.17;;;;;;;4.43;100.00;101837.94;2082246;28;41660;-67
2022/06/02 02:34:39;;;;;;;43.40;25.40;;;;;;;4.43;100.00;101845.03;2087160;28;43050;-66
2022/06/02 02:36:27;;;;;;;51.60;29.05;;;;;;;4.44;100.00;101849.47;2086534;28;44463;-66
2022/06/02 02:37:54;;;;;;;40.30;24.20;;;;;;;4.45;100.00;101841.53;2087257;28;43566;-66
2022/06/02 02:39:19;;;;;;;43.22;25.88;;;;;;;4.42;100.00;101844.13;2086463;28;44943;-66
2022/06/02 02:40:32;;;;;;;38.75;24.58;;;;;;;4.39;100.00;101849.38;2086853;28;43881;-66
2022/06/02 02:41:54;;;;;;;34.60;22.48;;;;;;;4.37;100.00;101843.16;2086432;28;43889;-66
2022/06/02 02:43:21;;;;;;;43.70;26.90;;;;;;;4.33;100.00;101842.22;2086793;28;45768;-65
2022/06/02 02:44:38;;;;;;;40.47;24.25;;;;;;;4.33;100.00;101843.97;2088433;28;20866;-66
2022/06/02 02:46:10;;;;;;;36.13;23.90;;;;;;;4.30;100.00;101841.28;2088029;28;45154;-66
2022/06/02 02:47:25;;;;;;;46.22;28.00;;;;;;;4.28;100.00;101848.31;2087215;28;41567;-66
2022/06/02 02:48:49;;;;;;;43.25;25.75;;;;;;;4.35;100.00;101839.59;2087206;28;43933;-66
2022/06/02 02:50:15;;;;;;;51.38;28.73;;;;;;;4.39;100.00;101841.44;2087141;28;40097;-66
2022/06/02 02:51:38;;;;;;;50.00;28.38;;;;;;;4.39;100.00;101844.06;2086974;28;43818;-66
2022/06/02 02:53:16;;;;;;;45.10;25.50;;;;;;;4.35;100.00;101845.78;2087050;28;36940;-66
2022/06/02 02:54:21;;;;;;;54.58;29.58;;;;;;;4.33;100.00;101849.28;2087201;28;43459;-66
2022/06/02 02:55:36;;;;;;;44.95;26.90;;;;;;;4.33;100.00;101850.16;2086396;28;45754;-66
2022/06/02 02:57:04;;;;;;;52.80;28.90;;;;;;;4.32;100.00;101842.19;2080593;28;43267;-66
2022/06/02 02:58:27;;;;;;;53.47;29.58;;;;;;;4.30;100.00;101843.94;2086977;28;45323;-66
2022/06/02 02:59:38;;;;;;;58.88;30.52;;;;;;;4.35;100.00;101844.91;2084371;28;45174;-65
2022/06/02 03:01:11;;;;;;;73.22;35.30;;;;;;;4.42;100.00;101846.78;2086755;28;41353;-66
2022/06/02 03:02:28;;;;;;;68.50;34.30;;;;;;;4.47;100.00;101844.19;2087158;28;43090;-65
2022/06/02 03:03:44;;;;;;;73.47;34.03;;;;;;;4.42;100.00;101844.13;2086754;28;37767;-66
2022/06/02 03:05:21;;;;;;;78.32;36.40;;;;;;;4.64;100.00;101853.34;2073617;28;42140;-65
2022/06/02 03:06:32;;;;;;;78.72;35.92;;;;;;;4.67;100.00;101852.50;2085652;28;45410;-66
2022/06/02 03:07:33;;;;;;;;;;;;;;;4.75;100.00;101850.84;2088935;28;43877;-66
2022/06/02 03:09:12;;;;;;;88.20;39.17;;;;;;;4.79;100.00;101847.38;2088400;28;43145;-66
2022/06/02 03:10:35;;;;;;;84.05;36.70;;;;;;;4.77;100.00;101847.38;2079450;28;46617;-65
2022/06/02 03:12:03;;;;;;;82.70;37.10;;;;;;;4.83;100.00;101849.22;2080626;28;43485;-66
2022/06/02 03:13:37;;;;;;;99.13;42.75;;;;;;;4.85;100.00;101844.81;2088224;28;43893;-66
2022/06/02 03:15:22;;;;;;;100.55;43.25;;;;;;;4.91;100.00;101849.31;2071258;28;43687;-65
2022/06/02 03:16:27;;;;;;;102.18;43.08;;;;;;;4.86;100.00;101853.66;2039560;29;44273;-66
2022/06/02 03:18:01;;;;;;;100.70;44.00;;;;;;;4.95;100.00;101856.47;2036655;28;46754;-66
2022/06/02 03:19:31;;;;;;;113.18;48.42;;;;;;;5.07;100.00;101854.00;2072080;28;41564;-67
2022/06/02 03:20:37;;;;;;;113.80;48.03;;;;;;;5.11;100.00;101854.91;2099229;22;20049;-70
2022/06/02 03:22:24;;;;;;;118.95;50.90;;;;;;;5.11;100.00;101855.81;2081091;28;44544;-71
2022/06/02 03:24:21;;;;;;;113.97;46.70;;;;;;;5.20;100.00;101860.34;2077518;28;42789;-71
2022/06/02 03:25:43;;;;;;;113.60;45.47;;;;;;;5.20;100.00;101854.16;2080195;28;46729;-71
2022/06/02 03:27:38;;;;;;;98.95;43.90;;;;;;;5.17;100.00;101852.38;2080863;28;20075;-71
2022/06/02 03:28:48;;;;;;;116.55;45.95;;;;;;;5.15;100.00;101856.75;2076198;28;43822;-71
2022/06/02 03:30:34;;;;;;;105.85;45.10;;;;;;;5.16;100.00;101855.88;2071459;28;42838;-71
2022/06/02 03:32:17;;;;;;;120.97;50.33;;;;;;;5.30;100.00;101859.63;2062269;28;20938;-71
2022/06/02 03:33:44;;;;;;;114.78;49.00;;;;;;;5.35;100.00;101863.25;2072544;28;20994;-71
2022/06/02 03:35:19;;;;;;;117.43;49.90;;;;;;;5.34;100.00;101856.13;2062753;28;45878;-70
2022/06/02 03:36:47;;;;;;;118.05;49.28;;;;;;;5.33;100.00;101859.69;2069572;28;43779;-72
2022/06/02 03:38:25;;;;;;;123.82;49.95;;;;;;;5.35;100.00;101862.34;2071978;28;45110;-72
2022/06/02 03:39:48;;;;;;;119.30;47.70;;;;;;;5.34;100.00;101864.09;2048406;28;42190;-72
2022/06/02 03:41:43;;;;;;;120.65;47.35;;;;;;;5.32;100.00;101865.84;2061445;28;44073;-70
2022/06/02 03:43:15;;;;;;;114.03;46.15;;;;;;;5.27;100.00;101867.53;2071836;28;42605;-70
2022/06/02 03:45:03;;;;;;;108.60;45.28;;;;;;;5.32;100.00;101871.16;2071486;28;45526;-72
2022/06/02 03:46:15;;;;;;;88.45;39.55;;;;;;;5.25;100.00;101871.94;2072843;28;46148;-71
2022/06/02 03:48:05;;;;;;;90.30;39.13;;;;;;;5.24;100.00;101872.84;2072287;28;43717;-71
2022/06/02 03:49:27;;;;;;;83.60;38.25;;;;;;;5.24;100.00;101864.88;2071405;28;45440;-71
2022/06/02 03:50:58;;;;;;;95.70;43.95;;;;;;;5.28;100.00;101874.66;2071100;28;43438;-71
2022/06/02 03:52:33;;;;;;;92.80;42.67;;;;;;;5.32;100.00;101871.16;2070551;28;43910;-72
2022/06/02 03:54:01;;;;;;;101.93;43.80;;;;;;;5.40;100.00;101875.69;2078557;28;44912;-71
2022/06/02 03:55:30;;;;;;;101.05;45.55;;;;;;;5.40;100.00;101878.34;2072589;28;42594;-71
2022/06/02 03:56:59;;;;;;;90.97;41.47;;;;;;;5.45;100.00;101880.16;2070858;28;45648;-71
2022/06/02 03:58:16;;;;;;;90.32;41.63;;;;;;;5.56;100.00;101885.63;2074192;28;44163;-70
2022/06/02 03:59:57;;;;;;;85.47;38.10;;;;;;;5.79;100.00;101879.72;2075262;28;44108;-71
2022/06/02 04:01:11;;;;;;;101.03;43.83;;;;;;;6.17;100.00;101876.63;2079980;28;46554;-70
2022/06/02 04:02:39;;;;;;;100.22;44.08;;;;;;;6.59;100.00;101875.25;2088036;28;39021;-71
2022/06/02 04:04:08;;;;;;;93.30;45.05;;;;;;;7.19;100.00;101881.00;2082897;28;45447;-71
2022/06/02 04:05:38;;;;;;;92.85;45.60;;;;;;;7.98;100.00;101880.47;2079781;28;46070;-72
2022/06/02 04:07:03;;;;;;;83.47;46.03;;;;;;;8.54;100.00;101873.53;2079862;28;43563;-71
2022/06/02 04:08:35;;;;;;;63.60;40.13;;;;;;;9.20;100.00;101871.66;2079770;28;43321;-71
2022/06/02 04:09:49;;;;;;;43.45;32.17;;;;;;;9.90;100.00;101876.75;2087340;28;44541;-71
2022/06/02 04:11:21;;;;;;;35.55;28.27;;;;;;;10.38;100.00;101867.59;2082849;28;45032;-71
2022/06/02 04:15:12;;;;;;;24.08;19.27;;;;;;;11.82;98.36;101876.84;2086919;28;42571;-72
2022/06/02 04:16:48;;;;;;;16.67;14.98;;;;;;;12.34;93.13;101869.88;2080638;28;20085;-71
2022/06/02 04:17:56;;;;;;;14.75;13.25;;;;;;;12.82;91.71;101861.03;2079722;28;46059;-71
2022/06/02 04:21:46;;;;;;;10.77;9.70;;;;;;;13.86;84.21;101868.03;2079812;28;41506;-70
2022/06/02 04:23:36;;;;;;;10.43;9.50;;;;;;;14.45;74.86;101865.75;2080155;28;43625;-72
2022/06/02 04:25:00;;;;;;;9.93;8.93;;;;;;;14.54;72.86;101861.09;2079961;28;45540;-72
2022/06/02 04:26:45;;;;;;;8.68;7.88;;;;;;;15.49;75.87;101865.75;2078844;28;44388;-71
2022/06/02 04:28:09;;;;;;;9.90;7.38;;;;;;;16.00;72.25;101866.06;2079961;28;43658;-71
2022/06/02 04:29:56;;;;;;;8.82;7.57;;;;;;;16.26;62.39;101863.47;2079416;28;44960;-71
2022/06/02 04:31:25;;;;;;;7.82;7.07;;;;;;;16.75;63.28;101864.59;2079738;28;43584;-71
2022/06/02 04:32:43;;;;;;;9.48;7.20;;;;;;;17.16;63.93;101860.47;2088228;28;20112;-72
2022/06/02 04:34:15;;;;;;;7.18;6.57;;;;;;;17.55;58.77;101868.06;2082196;28;45641;-71
2022/06/02 04:35:39;;;;;;;7.32;6.22;;;;;;;17.63;55.51;101861.47;2087998;28;45415;-72
2022/06/02 04:37:26;;;;;;;8.43;6.72;;;;;;;17.50;57.74;101867.34;2080510;28;45245;-71
2022/06/02 04:38:55;;;;;;;6.68;6.03;;;;;;;17.97;55.08;101862.94;2073061;28;44201;-72
2022/06/02 04:40:17;;;;;;;7.07;6.38;;;;;;;18.48;56.47;101867.19;2087519;28;45179;-72
2022/06/02 04:42:03;;;;;;;6.60;6.00;;;;;;;18.89;50.59;101862.75;2081828;28;45204;-72
2022/06/02 04:43:32;;;;;;;5.90;5.35;;;;;;;19.28;51.83;101869.22;2070622;28;41277;-72
2022/06/02 04:45:00;;;;;;;5.93;5.25;;;;;;;18.95;51.33;101869.78;2074349;28;44482;-71
2022/06/02 04:46:20;;;;;;;6.85;5.57;;;;;;;19.19;51.84;101862.38;2075684;28;45766;-71
2022/06/02 04:47:58;;;;;;;6.18;5.50;;;;;;;18.62;51.25;101867.50;2081164;28;43240;-72
2022/06/02 04:49:47;;;;;;;4.95;4.55;;;;;;;19.52;50.00;101875.38;2077734;28;46157;-71
2022/06/02 04:51:19;;;;;;;5.68;4.75;;;;;;;20.15;45.94;101875.19;2079778;28;20097;-71
2022/06/02 04:52:59;;;;;;;4.32;3.92;;;;;;;20.19;48.13;101876.81;2074263;28;45701;-72
2022/06/02 04:54:36;;;;;;;4.78;4.28;;;;;;;20.32;47.56;101877.09;2078529;28;45903;-72
2022/06/02 04:55:51;;;;;;;5.97;4.57;;;;;;;20.15;46.25;101882.44;2080512;28;20037;-69
2022/06/02 04:57:22;;;;;;;5.13;4.32;;;;;;;20.14;45.09;101880.72;2079115;28;46339;-72
2022/06/02 04:58:33;;;;;;;4.65;4.25;;;;;;;19.21;46.94;101884.03;2083144;28;43505;-73
2022/06/02 05:00:07;;;;;;;4.60;4.20;;;;;;;20.06;47.04;101893.78;2083495;28;43282;-72
2022/06/02 05:01:43;;;;;;;4.45;3.90;;;;;;;20.33;44.91;101883.41;2079102;28;20050;-72
2022/06/02 05:03:15;;;;;;;5.03;4.53;;;;;;;19.97;45.48;101886.94;2083294;28;46006;-73
2022/06/02 05:04:42;;;;;;;4.82;4.28;;;;;;;20.08;47.50;101895.47;2079053;28;46425;-72
2022/06/02 05:06:32;;;;;;;4.20;3.40;;;;;;;20.86;45.89;101887.16;2079536;28;44127;-72
2022/06/02 05:08:08;;;;;;;4.07;3.78;;;;;;;21.66;42.71;101888.41;2080118;28;44125;-72
2022/06/02 05:09:35;;;;;;;6.38;4.32;;;;;;;21.46;42.74;101894.94;2079504;28;46478;-73
2022/06/02 05:11:17;;;;;;;5.85;4.00;;;;;;;21.86;42.87;101890.06;2079334;28;42499;-71
2022/06/02 05:12:52;;;;;;;4.40;3.08;;;;;;;22.45;39.88;101888.56;2079345;28;46511;-72
2022/06/02 05:14:15;;;;;;;3.97;3.40;;;;;;;21.98;41.66;101891.22;2079519;28;44625;-72
2022/06/02 05:16:03;;;;;;;4.60;3.80;;;;;;;21.64;42.20;101891.25;2078808;28;42060;-72
2022/06/02 05:17:36;;;;;;;4.78;3.60;;;;;;;;;;2086028;28;46726;-72
2022/06/02 05:19:49;;;;;;;4.03;3.25;;;;;;;21.26;42.98;101904.16;2080416;28;42350;-72
2022/06/02 05:21:27;;;;;;;4.60;3.50;;;;;;;22.47;41.61;101892.06;2069947;28;41257;-73
2022/06/02 05:22:57;;;;;;;3.75;3.22;;;;;;;22.71;40.42;101893.47;2069925;28;46451;-73
2022/06/02 05:24:43;;;;;;;3.33;3.03;;;;;;;23.52;39.10;101898.59;2070215;28;43894;-73
2022/06/02 05:26:15;;;;;;;3.70;3.05;;;;;;;23.64;38.79;101904.16;2070276;28;46629;-72
2022/06/02 05:27:53;;;;;;;5.00;2.85;;;;;;;23.62;38.03;101897.06;2079233;28;43310;-72
2022/06/02 05:29:55;;;;;;;2.72;2.35;;;;;;;23.86;37.03;101900.09;2078492;28;45277;-72
2022/06/02 05:31:15;;;;;;;3.70;2.88;;;;;;;23.52;37.33;101896.72;2078456;28;45709;-72
2022/06/02 05:33:09;;;;;;;4.43;2.55;;;;;;;23.47;39.19;101898.88;2079035;28;40730;-72
2022/06/02 05:34:54;;;;;;;3.60;2.38;;;;;;;24.50;38.13;101894.16;2079081;28;46073;-72
2022/06/02 05:36:27;;;;;;;2.95;2.15;;;;;;;24.12;36.82;101905.75;2079212;28;43583;-71
2022/06/02 05:38:00;;;;;;;2.50;2.30;;;;;;;25.14;36.00;101900.78;2079387;28;44024;-73
2022/06/02 05:39:31;;;;;;;5.18;2.10;;;;;;;24.07;36.56;101910.66;2080776;28;20034;-72
2022/06/02 05:40:40;;;;;;;3.28;2.15;;;;;;;23.99;37.59;101906.56;2087288;28;39856;-72
2022/06/02 05:42:09;;;;;;;3.08;2.25;;;;;;;22.88;38.24;101907.00;2082276;28;44320;-72
2022/06/02 05:43:49;;;;;;;4.65;2.15;;;;;;;23.42;37.68;101918.31;2087215;28;41392;-72
2022/06/02 05:45:12;;;;;;;2.20;1.85;;;;;;;22.79;38.11;101913.88;2078274;28;44513;-72
2022/06/02 05:46:43;;;;;;;2.45;2.00;;;;;;;23.58;37.96;101915.50;2079256;28;46353;-73
2022/06/02 05:47:47;;;;;;;3.00;2.15;;;;;;;22.47;38.48;101919.34;2079498;28;42545;-72
2022/06/02 05:49:25;;;;;;;2.10;1.73;;;;;;;23.04;37.19;101916.06;2080719;28;45475;-73
2022/06/02 05:50:56;;;;;;;3.53;1.85;;;;;;;23.11;38.16;101929.34;2079774;28;38809;-73
2022/06/02 05:52:36;;;;;;;5.85;1.63;;;;;;;24.30;36.22;101921.00;2086590;28;43774;-71
2022/06/02 05:54:20;;;;;;;;;;;;;;;24.56;35.15;101918.41;2071092;28;45161;-71
2022/06/02 05:55:46;;;;;;;1.98;1.77;;;;;;;24.37;36.71;101922.34;2079040;28;43285;-72
2022/06/02 05:57:26;;;;;;;3.15;1.80;;;;;;;25.08;34.77;101930.44;2079159;28;45505;-71
2022/06/02 05:59:02;;;;;;;2.05;1.70;;;;;;;24.59;35.57;101929.19;2086949;28;45905;-71
2022/06/02 06:00:20;;;;;;;2.58;1.83;;;;;;;24.43;34.41;101931.16;2079988;28;20077;-71
2022/06/02 06:01:52;;;;;;;1.88;1.67;;;;;;;25.99;33.70;101918.66;2079786;28;20042;-71
2022/06/02 06:03:32;;;;;;;1.73;1.55;;;;;;;25.62;34.30;101930.34;2086927;28;42107;-71
2022/06/02 06:05:03;;;;;;;2.08;1.30;;;;;;;25.39;33.04;101931.09;2079105;28;44483;-72
2022/06/02 06:06:28;;;;;;;2.78;1.30;;;;;;;25.07;33.32;101932.31;2086793;28;45829;-72
2022/06/02 06:08:08;;;;;;;1.80;1.15;;;;;;;25.39;33.40;101931.97;2080089;28;43580;-72
2022/06/02 06:09:43;;;;;;;2.77;1.70;;;;;;;24.60;34.20;101936.38;2087085;28;41658;-73
2022/06/02 06:11:10;;;;;;;1.98;1.20;;;;;;;25.70;34.26;101932.56;2079108;28;43379;-73
2022/06/02 06:12:33;;;;;;;3.28;1.80;;;;;;;24.50;34.25;101930.63;2078757;28;45521;-73
2022/06/02 06:13:54;;;;;;;1.88;1.50;;;;;;;25.61;33.45;101934.09;2078229;28;45812;-72
2022/06/02 06:15:47;;;;;;;2.25;1.60;;;;;;;25.71;32.84;101931.56;2081309;28;45179;-72
2022/06/02 06:17:26;;;;;;;2.20;1.35;;;;;;;24.65;34.92;101934.22;2078430;28;45301;-71
2022/06/02 06:19:03;;;;;;;2.27;1.70;;;;;;;24.56;35.24;101941.19;2075800;28;29832;-71
2022/06/02 06:20:48;;;;;;;3.13;1.33;;;;;;;25.60;34.48;101934.19;2071267;28;45288;-71
2022/06/02 06:22:27;;;;;;;3.25;1.42;;;;;;;25.56;33.09;101941.75;2070806;28;45174;-71
2022/06/02 06:24:15;;;;;;;2.22;1.67;;;;;;;25.80;33.07;101936.38;2071284;28;43625;-71
2022/06/02 06:26:00;;;;;;;2.05;1.35;;;;;;;26.25;32.89;101939.53;2070758;28;43907;-71
2022/06/02 06:27:34;;;;;;;1.73;0.80;;;;;;;26.38;31.28;101935.88;2070741;28;45755;-69
2022/06/02 06:28:51;;;;;;;3.45;1.20;;;;;;;27.34;30.45;101935.97;2078339;28;44197;-71
2022/06/02 06:30:44;;;;;;;2.47;1.40;;;;;;;26.91;30.36;101936.50;2073590;28;44151;-70
2022/06/02 06:31:57;;;;;;;2.65;1.30;;;;;;;26.61;31.08;101932.38;2070803;28;43650;-71
2022/06/02 06:33:17;;;;;;;1.45;0.80;;;;;;;27.92;29.22;101946.97;2070739;28;45718;-70
2022/06/02 06:34:42;;;;;;;2.28;0.90;;;;;;;26.89;30.50;101945.88;2070403;28;46220;-71
2022/06/02 06:36:30;;;;;;;1.52;0.80;;;;;;;27.17;30.51;101939.09;2070521;28;45544;-71
2022/06/02 06:38:00;;;;;;;2.30;1.00;;;;;;;27.09;31.62;101941.59;2053417;28;46315;-71
2022/06/02 06:39:15;;;;;;;2.25;0.70;;;;;;;27.60;31.13;101944.00;2066941;28;20045;-71
2022/06/02 06:40:41;;;;;;;2.75;0.70;;;;;;;28.55;29.06;101950.13;2075298;28;44102;-71
2022/06/02 06:42:12;;;;;;;2.33;0.80;;;;;;;28.22;27.93;101948.25;2079971;28;43139;-72
2022/06/02 06:43:23;;;;;;;2.38;0.68;;;;;;;27.58;30.21;101946.00;2072067;28;20046;-71
2022/06/02 06:45:03;;;;;;;2.45;0.60;;;;;;;28.23;28.97;101951.84;2071741;28;46530;-71
2022/06/02 06:46:41;;;;;;;1.85;0.68;;;;;;;26.08;32.05;101948.16;2071714;28;41947;-71
2022/06/02 06:48:00;;;;;;;;;;;;;;;25.39;32.90;101956.63;2070553;28;20124;-70
2022/06/02 06:49:26;;;;;;;1.33;0.70;;;;;;;25.65;32.58;101951.22;2071813;28;44010;-71
2022/06/02 06:50:43;;;;;;;1.92;0.60;;;;;;;26.55;30.64;101952.00;2072379;28;43578;-71
2022/06/02 06:52:26;;;;;;;1.13;0.70;;;;;;;26.85;30.24;101939.72;2079684;28;44455;-71
2022/06/02 06:54:08;;;;;;;1.40;0.60;;;;;;;25.59;33.43;101944.28;2072485;28;20112;-71
2022/06/02 06:55:39;;;;;;;2.50;0.60;;;;;;;27.13;30.48;101943.97;2071730;28;45505;-71
2022/06/02 06:57:08;;;;;;;1.27;0.50;;;;;;;26.01;31.98;101955.09;2071286;28;46926;-71
2022/06/02 06:58:53;;;;;;;1.83;0.60;;;;;;;26.27;31.65;101945.81;2070701;28;43370;-70
2022/06/02 07:00:04;;;;;;;2.25;0.47;;;;;;;28.21;29.25;101949.25;2079509;28;43935;-70